Timeline UpdatesTrip UpdatesNews PostsPvt Posts♥♥Travel TipsAdmin PostsConv PostsFollowed PostsChat RequestsBlog PostsPNR Posts

Disclaimer
Search
 
 
Sun Nov 23, 2014 16:35:28 ISTHomeTrainsΣChainsAtlasPNRForumGalleryNewsFAQTripsMembersLoginFeedback
No Recent News for this Train
Other Trains in the News **new
Latest...
Departure from Mangalore Central on 26th August, to be delayed by more than 4 hours due to late arrival of 12619
Tue Aug 26, 2014 (12:06PM)
⇐ Return Journey: Train# 16347

16348/Mangalore - Trivandrum Express

OLD Time-Table. Will be Updated soon.
Aug 31 2014 (2:49PM)
Change Departure Station:
Change Arrival Station:
Post a Train Travel TipPost a Train Travel Tip **new
Post a Comment/Question/Picture/VideoPost a Comment/Question/Picture/Video
Pantry/Catering
✕ NO Pantry Car
✓ Catering Avbl
RSA - Rake Sharing
Author: Srivatsa Udupa; Entry# 339734 RSA; Permanent RSA with 12619/12620 MatsyaGandha Express
Rake/Coach Composition
SLR-UR-UR-S1-S2-S3-S4-S5-S6- S7-S8-S9-S10-S11-B1-B2-B3-A1-UR-UR-UR-SLR- Loco; .; De-reseved: Cannanore-Calicut S6
Loco
MAQ to SRR GOC WDP-4D SRR to TVC ED/RPM WAP4
News    PNR    Forum    Time-Table    Availability    Fare Chart    Map    Arr/Dep History    Trips    Gallery    ΣChains    X/O    Timeline    
Travel Time: 3h 3m    11 halts    Distance: 126 km    Avg Speed: 41 km/hr
Type: Mail/Express
Zone: SR/Southern
Departs @ 01:42 (Avg 34m late)
Platform# 1
SMTWTFS
Chengannur/CNGR 
Arrives @ 04:45 (Avg 4m late)
Platform# 2
SMTWTFS
Trivandrum Central/TVC 

11 halts. 25 intermediate Stations between Chengannur and Trivandrum Central

Show ALL intermediate Stations  Show Old Time-Table

#TrkCodeStation NameX/OArrivesAvgDepartsAvgHaltPFDay#KmSpeedElevZoneAddress
1%==%MAQMangalore Central (4)  -14:20+1131-506.36314mSRMangalore 575001, Karnataka
2%==%KMQKumbala (2)  14:54 14:52+814:55 14:53+81m11-472.88123mSRKumbla, Kerala
3%==%KGQKasaragod (3)  15:05 15:02+1015:07 15:04+102m11-460.55218mSRTel: 04994 220800, Kerala
4%==%KQKKottikkulam (2)  15:16 15:15+915:17 15:16+91m--1-451.18225mSRBekal, Kerala
5%==%KZEKanhangad (3)X  15:28 15:26+1115:30 15:28+122m--1-437.45115mSRKanhangad, Kerala
6%==%NLENileshwar (2)  15:39+1215:40+131m--1-428.24512mSRNileswaram, Kerala
7%==%CHVCharvattur (3)X  15:47+1415:48+141m--1-422.912814mSRKasaragod district, Kerala
8%==%TKQTrikkarippur  15:52+015:53+01m--1-414.35313mSRKasargod district, Kerala
9%==%PAYPayyanur (3)  16:00+1716:02+182m--1-408.1780mSRKannur District, Kerala
10%==%PAZPayangadi (2)X  16:11+2216:12+221m21-396.56412mSRKannur District, Kerala
11%==%KPQKannapuram (2)O  16:19+2416:20+241m21-389.0229mSRKannur District, Kerala
12%==%CANKannur Main (4)  17:00+1217:05+175m31-374.56514mSRKannur Tel: 0497 2705555, Kerala
13%==%TLYThalassery (2)  17:23 17:24+1917:25 17:26+192m--1-353.8629mSRKannur, Kerala
14%==%MAHEMahe (2)X  17:33 17:35+2117:35 17:37+202m--1-344.67716mSRMahe, Puducherry
15%==%BDJVadakara (2)  17:43 17:47+2017:45 17:49+202m11-331.77711mSRCalicut / Station Ph No : 0496-2524254, Kerala
16%==%QLDKoyilandy (3)X  18:04 18:06+2218:05 18:07+231m--1-309.83811mSRQuilandi, Kerala
17%==%CLTKozhikode Main (4)X  18:45+1218:50+165m--1-285.44311mSRCalicut Tel: 0495 2701234, Kerala
18%==%FKFerok (2)  19:04+1819:05+191m--1-275.54719mSRFeroke, Kerala
19%==%VLIVallikunnu (2)  19:18+119:19+11m--1-265.34313mSRVallikkunnu, Kerala
20%==%PGIParappangadi (2)  19:26+2019:27+211m--1-260.35419mSRParappanangadi, Kerala
21%==%TATanur (3)X  19:36+2219:37+221m--1-252.25311mSRMalappuram, Kerala
22%==%TIRTirur (3)X  19:46+2119:48+222m--1-244.2539mSRTel: 0494 2422240, Kerala
23%==%KTUKuttippuram (2)  20:05+2120:07+212m--1-229.16517mSRKuttippuram, Kerala
24%==%PTBPattambi (2)X  20:24+2320:25+231m--1-210.72021mSRPattambi, Kerala
25%==%SRRShoranur Junction (7)  21:00+2221:10+1810m51-199.15226mSRShoranur ph.no 0466-2222913, Kerala
26/==/WKIWadakkanchery (2)  21:34 21:29+3321:35 21:30+331m11-182.65240mSRWadackanchery, Kerala
27/==/TCRThrissur (4)X  21:58 21:49+3222:01 21:50+343 1m11-166.2756mSRThrissur Tel: 0487 2423150, Kerala
28/==/IJKIrinjalakkuda (2)X  22:27 22:09+3222:28 22:10+331m--1-142.45518mSRKalletumkara, Kerala
29/==/CKIChalakkudy (3)X  22:37 22:17+3222:38 22:18+331m11-136.0709mSRPh: 0480- 2701368, Kerala
30/==/AFKAngamaly for Kalady (3)X  22:51 22:31+4022:52 22:32+421m--1-120.83516mSRPhone: 0484-2452340, Kerala
31/==/AWYAluva (3)X  23:01 22:48+3723:03 22:50+362m11-111.62212mSRPh: 0484-2624141, Kerala
32/==/ERNErnakulam Town (North) (2)X  23:35+2323:40+245m21-94.7569mSRTel: 0484 2395198, Kerala
33%==%PVRDPiravom Road  00:14 00:11+2400:15 00:12+261m--2-66.04812mSRKottayam, Kerala
34%==%KTYMKottayam (3)X  00:55 00:51+2401:00 00:55+245 4m--2-34.85615mSRTel: 0481 2563535, Kerala
35%==%CGYChanganassery (3)  01:18 01:14+3401:20 01:15+352 1m--2-16.95211mSRPh: 0481- 2420108, Kerala
36%==%TRVLTiruvalla (2)  01:28 01:24+3501:30 01:25+362 1m--2-9.13427mSRPh: 0469-2601314, Kerala
37%==/CNGRChengannur (3)»  01:38 01:41+3301:40 01:42+342 1m120.0636mSRPh: 0479-2452340, Kerala
38/==/MVLKMavelikara (3)X  01:53 01:54+3501:55+362 1m3212.52613mSRMavelikkara Ph: 0479-2302249, Kerala
39/==/KYJKayamkulam Junction (5)X  02:13+2602:15+262m--220.25911mSRAlappuzha Ph;0479-2442042, Kerala
40/==/KPYKarunagappalli (2)  02:28 02:29+2702:30+272 1m--233.95712mSRKollam Dist, Kerala
41/==/STKTSasthamkotta (2)02:38+2902:39+291m--241.6560mSRKollam Dist, Kerala
42/==/QLNKollam Junction (6)  03:05 03:00+2603:10 03:05+265m1261.05916mSRKollam 0474-2746194, Kerala
43/==/MYYMayyanad (2)  03:19 03:14+2903:20 03:15+291m--269.95321mSRMayyanad, Kerala
44/==/PVUParavur (3)  03:24 03:19+3003:25 03:20+311m--273.47518mSRParavoor, Kerala
45/==/VAKVarkala Sivagiri (3)  03:35 03:29+3303:37 03:30+332 1m--284.76152mSREdava Kappil Road, Kerala
46/==/KVUKadakavur (3)  03:46 03:39+3403:47 03:40+341m--293.83720mSRKadakkavoor, Kerala
47/==/CRYChirayinkeezhu (2)  03:51 03:45+003:52 03:46+01m--296.96919mSRChirayinkeezhu, Kerala
48/==/TVPThiruvananthapuram Pettah (2)  04:19 04:09+3:1104:20 04:10+3:111m--2123.3418mSRTrivandrum Ph: 04712470181, Kerala
49/==/TVCTrivandrum Central (5)•  04:45+4-22125.6-12mSRThiruvananthapuram 695001, Kerala
Scroll to Top
Scroll to Bottom